Time;durP1;ratioP1;P1;durP2;ratioP2;P2;SDS_P1;SDS_P2;PMS_P1;PMS_P2;Temp;Humidity;BMP_temperature;BMP_pressure;BME280_temperature;BME280_humidity;BME280_pressure;Samples;Min_cycle;Max_cycle;Signal;HPM_P1;HPM_P2
2023/11/14 00:05:36;;;;;;;0.03;0.03;;;;;;;8.89;84.69;99418.69;15671190;28;20152;-49
2023/11/14 00:13:12;;;;;;;0.00;0.00;;;;;;;8.86;83.68;99414.63;15662617;28;20095;-49
2023/11/14 00:20:45;;;;;;;0.00;0.00;;;;;;;9.05;83.78;99422.53;15670112;28;20618;-50
2023/11/14 00:28:20;;;;;;;0.43;0.30;;;;;;;8.61;85.44;99430.84;15668795;28;20033;-49
2023/11/14 00:35:53;;;;;;;0.00;0.00;;;;;;;8.72;84.18;99436.44;15650855;28;20143;-48
2023/11/14 00:43:31;;;;;;;1.65;1.17;;;;;;;8.84;83.03;99430.06;15674446;28;20049;-47
2023/11/14 00:51:05;;;;;;;0.00;0.00;;;;;;;8.90;83.04;99439.03;15678832;28;20033;-50
2023/11/14 00:58:39;;;;;;;0.00;0.00;;;;;;;8.62;83.88;99443.16;15678865;28;20041;-48
2023/11/14 01:06:13;;;;;;;0.00;0.00;;;;;;;8.60;83.53;99447.13;15670261;28;20480;-49
2023/11/14 01:13:47;;;;;;;0.00;0.00;;;;;;;8.84;83.21;99454.16;15662927;28;20069;-47
2023/11/14 01:21:21;;;;;;;0.00;0.00;;;;;;;8.90;82.07;99445.19;15677528;28;20051;-48
2023/11/14 01:28:56;;;;;;;0.00;0.00;;;;;;;8.79;82.78;99446.00;15678064;28;20067;-48
2023/11/14 01:36:29;;;;;;;0.10;0.10;;;;;;;8.88;81.91;99436.59;15676857;28;20041;-51
2023/11/14 01:44:05;;;;;;;0.00;0.00;;;;;;;8.78;81.94;99430.19;15676643;28;20102;-48
2023/11/14 01:51:39;;;;;;;0.15;0.15;;;;;;;8.96;81.15;99435.44;15676250;28;20079;-48
2023/11/14 01:59:14;;;;;;;0.00;0.00;;;;;;;9.00;80.32;99449.16;15676701;28;20037;-48
2023/11/14 02:06:48;;;;;;;0.75;0.43;;;;;;;8.99;78.92;99461.72;15642330;28;20045;-47
2023/11/14 02:14:23;;;;;;;0.00;0.00;;;;;;;8.76;80.26;99459.03;15654762;28;20076;-46
2023/11/14 02:21:57;;;;;;;0.10;0.10;;;;;;;8.73;80.57;99468.34;15657794;28;20514;-46
2023/11/14 02:29:32;;;;;;;0.10;0.10;;;;;;;8.90;79.82;99458.56;15673414;28;20037;-49
2023/11/14 02:37:06;;;;;;;0.00;0.00;;;;;;;8.76;80.48;99465.19;15672212;28;20408;-46
2023/11/14 02:44:42;;;;;;;0.08;0.08;;;;;;;8.65;80.59;99453.41;15656620;28;20049;-46
2023/11/14 02:52:17;;;;;;;0.00;0.00;;;;;;;8.71;79.83;99451.69;15665210;28;20046;-47
2023/11/14 02:59:53;;;;;;;16.25;1.85;;;;;;;8.76;79.72;99453.66;15671848;28;20040;-46
2023/11/14 03:07:34;;;;;;;5.55;0.32;;;;;;;9.12;78.09;99472.22;15655347;28;20048;-48
2023/11/14 03:15:10;;;;;;;0.22;0.22;;;;;;;8.87;79.40;99467.09;15671835;28;20045;-49
2023/11/14 03:22:43;;;;;;;0.15;0.15;;;;;;;9.09;78.11;99469.19;15655848;28;20069;-45
2023/11/14 03:30:22;;;;;;;0.00;0.00;;;;;;;9.41;77.62;99461.63;15670187;28;20056;-47
2023/11/14 03:37:55;;;;;;;0.00;0.00;;;;;;;9.29;78.45;99475.03;15670774;28;20041;-46
2023/11/14 03:45:30;;;;;;;0.00;0.00;;;;;;;9.40;78.21;99460.00;15673557;28;20045;-48
2023/11/14 03:53:04;;;;;;;4.03;0.73;;;;;;;9.50;78.16;99460.22;15671760;28;20037;-47
2023/11/14 04:00:39;;;;;;;0.00;0.00;;;;;;;9.33;78.47;99457.47;15653711;28;20091;-47
2023/11/14 04:08:13;;;;;;;0.10;0.08;;;;;;;9.47;77.47;99457.22;15663419;28;20060;-47
2023/11/14 04:15:49;;;;;;;0.00;0.00;;;;;;;9.61;76.63;99461.28;15670766;28;20033;-47
2023/11/14 04:23:23;;;;;;;0.00;0.00;;;;;;;9.74;75.93;99462.88;15683104;28;20482;-47
2023/11/14 04:30:59;;;;;;;0.00;0.00;;;;;;;9.87;74.84;99466.09;15680405;28;20041;-47
2023/11/14 04:38:33;;;;;;;0.00;0.00;;;;;;;9.75;75.04;99451.94;15678643;28;20053;-51
2023/11/14 04:46:11;;;;;;;11.43;2.53;;;;;;;9.85;74.53;99444.09;15682425;28;20039;-49
2023/11/14 04:53:49;;;;;;;0.00;0.00;;;;;;;10.16;73.20;99453.53;15680879;28;20045;-46
2023/11/14 05:01:24;;;;;;;0.00;0.00;;;;;;;10.21;72.87;99452.81;15681261;28;20099;-47
2023/11/14 05:08:57;;;;;;;0.00;0.00;;;;;;;10.22;72.72;99449.91;15679807;28;20057;-50
2023/11/14 05:16:38;;;;;;;1.17;0.22;;;;;;;10.28;72.57;99444.69;15680849;28;20045;-46
2023/11/14 05:24:11;;;;;;;0.00;0.00;;;;;;;10.43;71.71;99437.72;15679560;28;20514;-46
2023/11/14 05:31:46;;;;;;;0.00;0.00;;;;;;;10.33;71.77;99439.41;15677144;28;20136;-47
2023/11/14 05:39:20;;;;;;;0.00;0.00;;;;;;;10.56;70.98;99433.09;15677226;28;20511;-50
2023/11/14 05:46:55;;;;;;;;;;;;;;;10.39;70.77;99409.75;15679720;28;20049;-46
2023/11/14 05:54:31;;;;;;;4.95;1.20;;;;;;;10.50;70.79;99432.22;15643232;22;19924;-51
2023/11/14 06:02:09;;;;;;;0.00;0.00;;;;;;;10.44;70.91;99425.94;15615400;28;20534;-51
2023/11/14 06:09:46;;;;;;;1.20;0.85;;;;;;;10.34;70.90;99419.56;15595210;28;20389;-51
2023/11/14 06:17:21;;;;;;;0.00;0.00;;;;;;;10.41;71.20;99422.94;15570927;28;20095;-48
2023/11/14 06:24:54;;;;;;;0.00;0.00;;;;;;;10.25;71.24;99429.06;15615328;28;20046;-53
2023/11/14 06:32:29;;;;;;;0.03;0.03;;;;;;;10.38;70.85;99437.63;15597189;28;20041;-50
2023/11/14 06:40:04;;;;;;;0.43;0.43;;;;;;;10.46;70.73;99453.34;15618782;28;20073;-49
2023/11/14 06:47:38;;;;;;;0.03;0.03;;;;;;;10.55;69.80;99448.41;15614843;28;20049;-51
2023/11/14 06:55:13;;;;;;;0.00;0.00;;;;;;;10.45;70.51;99440.19;15614103;28;20416;-49
2023/11/14 07:02:47;;;;;;;;;;;;;;;10.62;69.95;99448.22;15615425;28;20075;-50
2023/11/14 07:10:21;;;;;;;0.00;0.00;;;;;;;10.51;69.86;99455.31;15613785;28;19929;-49
2023/11/14 07:17:56;;;;;;;0.00;0.00;;;;;;;10.64;69.91;99449.63;15599507;28;20072;-51
2023/11/14 07:25:33;;;;;;;0.98;0.98;;;;;;;10.66;69.64;99457.44;15617672;28;20060;-49
2023/11/14 07:33:09;;;;;;;1.45;0.57;;;;;;;10.61;70.30;99463.53;15619601;28;20056;-52
2023/11/14 07:40:42;;;;;;;0.00;0.00;;;;;;;10.88;69.06;99460.22;15626092;28;20046;-56
2023/11/14 07:48:17;;;;;;;0.00;0.00;;;;;;;10.75;69.43;99457.84;15602270;28;20045;-53
2023/11/14 07:55:50;;;;;;;0.00;0.00;;;;;;;11.07;69.05;99474.22;15617469;28;20060;-51
2023/11/14 08:03:25;;;;;;;0.00;0.00;;;;;;;10.91;69.07;99473.97;15626564;28;20061;-48
2023/11/14 08:10:59;;;;;;;0.00;0.00;;;;;;;11.15;68.99;99452.34;15624766;28;20132;-48
2023/11/14 08:18:34;;;;;;;0.63;0.20;;;;;;;11.40;68.12;99468.00;15625253;28;20042;-52
2023/11/14 08:26:07;;;;;;;0.95;0.88;;;;;;;11.13;68.90;99457.94;15624057;28;20045;-50
2023/11/14 08:33:45;;;;;;;0.00;0.00;;;;;;;11.36;67.91;99451.56;15623892;28;20045;-54
2023/11/14 08:41:19;;;;;;;0.10;0.10;;;;;;;11.89;65.85;99444.78;15621902;28;20040;-49
2023/11/14 08:48:54;;;;;;;0.98;0.40;;;;;;;11.86;65.87;99457.91;15623941;28;20096;-53
2023/11/14 08:56:29;;;;;;;0.00;0.00;;;;;;;12.09;65.23;99456.84;15622579;28;20076;-53
2023/11/14 09:04:03;;;;;;;;;;;;;;;12.10;65.66;99472.72;15621670;28;20049;-51
2023/11/14 09:11:38;;;;;;;7.32;1.85;;;;;;;13.00;63.97;99483.84;15621394;28;19921;-52
2023/11/14 09:19:15;;;;;;;0.00;0.00;;;;;;;13.16;62.53;99463.22;15604728;28;20037;-53
2023/11/14 09:26:48;;;;;;;0.08;0.08;;;;;;;12.47;64.04;99410.97;15620101;28;20042;-52
2023/11/14 09:34:23;;;;;;;0.10;0.10;;;;;;;13.22;62.72;99483.78;15620867;28;20095;-55
2023/11/14 09:42:02;;;;;;;0.03;0.03;;;;;;;13.00;62.61;99478.44;15619806;28;20495;-51
2023/11/14 09:49:38;;;;;;;2.75;1.17;;;;;;;13.21;62.27;99472.16;15620152;28;20045;-51
2023/11/14 09:57:12;;;;;;;0.10;0.10;;;;;;;13.18;62.70;99475.34;15619856;28;20112;-50
2023/11/14 10:04:47;;;;;;;0.22;0.22;;;;;;;12.40;64.45;99484.88;15619448;28;20132;-53
2023/11/14 10:12:33;;;;;;;2.53;0.75;;;;;;;12.70;63.85;99506.72;15601344;28;20091;-52
2023/11/14 10:20:10;;;;;;;0.00;0.00;;;;;;;12.83;63.69;99446.28;15618221;28;20140;-51
2023/11/14 10:27:55;;;;;;;0.00;0.00;;;;;;;12.72;63.94;99485.75;15619275;28;20045;-56
2023/11/14 10:35:30;;;;;;;3.33;1.08;;;;;;;13.37;61.63;99472.28;15618502;28;20542;-52
2023/11/14 10:43:04;;;;;;;2.75;0.65;;;;;;;12.88;63.18;99475.13;15620704;28;20458;-55
2023/11/14 10:50:40;;;;;;;0.08;0.08;;;;;;;12.73;62.88;99463.16;15619689;28;20091;-55
2023/11/14 10:58:14;;;;;;;0.03;0.03;;;;;;;12.84;63.08;99474.81;15619366;28;20053;-55
2023/11/14 11:05:53;;;;;;;0.00;0.00;;;;;;;12.89;63.12;99482.94;15618546;28;20492;-54
2023/11/14 11:13:29;;;;;;;0.22;0.22;;;;;;;13.00;62.79;99487.34;15609138;28;20061;-54
2023/11/14 11:21:12;;;;;;;0.00;0.00;;;;;;;13.16;62.75;99476.69;15620555;28;20061;-52
2023/11/14 11:28:50;;;;;;;0.03;0.03;;;;;;;13.20;61.95;99467.03;15631513;28;20050;-54
2023/11/14 11:36:32;;;;;;;0.08;0.08;;;;;;;12.91;62.82;99466.50;15594629;28;20073;-51
2023/11/14 11:44:07;;;;;;;0.00;0.00;;;;;;;12.89;63.01;99493.72;15598002;28;20045;-54
2023/11/14 11:51:46;;;;;;;0.30;0.30;;;;;;;13.13;62.42;99502.25;15626395;22;20046;-71
2023/11/14 11:59:20;;;;;;;1.10;0.55;;;;;;;12.84;64.08;99509.03;15591185;28;20124;-75
2023/11/14 12:06:56;;;;;;;;;;;;;;;13.03;63.20;99508.38;15588974;28;20055;-72
2023/11/14 12:14:31;;;;;;;0.00;0.00;;;;;;;12.75;64.08;99501.41;15605484;28;20328;-72
2023/11/14 12:22:11;;;;;;;0.22;0.10;;;;;;;12.68;64.10;99513.44;15587166;28;20129;-73
2023/11/14 12:29:44;;;;;;;0.00;0.00;;;;;;;12.61;64.01;99519.03;15589965;28;20046;-73
2023/11/14 12:37:19;;;;;;;0.10;0.10;;;;;;;12.78;63.62;99513.56;15581193;28;20136;-73
2023/11/14 12:44:54;;;;;;;0.00;0.00;;;;;;;12.64;64.92;99506.94;15617122;28;20049;-72
2023/11/14 12:52:30;;;;;;;5.57;2.63;;;;;;;12.03;69.91;99511.59;15616419;28;20448;-71
2023/11/14 13:00:04;;;;;;;0.03;0.03;;;;;;;11.67;71.87;99479.69;15615338;28;20084;-73
2023/11/14 13:07:41;;;;;;;0.00;0.00;;;;;;;11.96;69.74;99503.75;15615824;28;20115;-72
2023/11/14 13:15:15;;;;;;;0.00;0.00;;;;;;;11.51;72.92;99491.25;15608479;23;20034;-51
2023/11/14 13:22:50;;;;;;;0.00;0.00;;;;;;;11.72;73.06;99495.06;15585420;28;20041;-53
2023/11/14 13:30:23;;;;;;;0.10;0.10;;;;;;;11.81;71.33;99487.38;15611668;28;20264;-59
2023/11/14 13:37:57;;;;;;;0.13;0.08;;;;;;;12.32;68.86;99509.56;15609367;28;20037;-53
2023/11/14 13:45:31;;;;;;;0.00;0.00;;;;;;;12.39;66.75;99502.09;15611653;28;20072;-53
2023/11/14 13:53:06;;;;;;;0.28;0.28;;;;;;;12.43;67.38;99513.97;15610006;28;20048;-51
2023/11/14 14:00:41;;;;;;;0.00;0.00;;;;;;;12.40;65.93;99511.78;15592447;28;20046;-51
2023/11/14 14:08:16;;;;;;;0.00;0.00;;;;;;;12.61;65.72;99505.56;15610059;28;20156;-54
2023/11/14 14:15:50;;;;;;;0.17;0.08;;;;;;;12.27;66.74;99498.75;15608585;28;20462;-54
2023/11/14 14:23:25;;;;;;;;;;;;;;;12.50;66.01;99509.22;15590490;28;20122;-55
2023/11/14 14:30:59;;;;;;;0.00;0.00;;;;;;;12.38;66.20;99508.53;15608507;28;19979;-53
2023/11/14 14:38:34;;;;;;;0.00;0.00;;;;;;;12.32;65.78;99512.25;15606334;28;20137;-52
2023/11/14 14:46:10;;;;;;;0.00;0.00;;;;;;;12.35;66.42;99514.41;15591888;28;20038;-53
2023/11/14 14:53:46;;;;;;;0.75;0.75;;;;;;;12.24;65.38;99502.72;15607236;28;20125;-54
2023/11/14 15:01:22;;;;;;;0.00;0.00;;;;;;;12.07;66.29;99508.16;15604399;28;20056;-57
2023/11/14 15:09:02;;;;;;;1.10;0.73;;;;;;;11.97;66.67;99499.97;15589288;28;20049;-57
2023/11/14 15:16:36;;;;;;;0.55;0.40;;;;;;;11.87;67.07;99510.63;15601020;28;20538;-54
2023/11/14 15:24:11;;;;;;;0.30;0.30;;;;;;;11.89;67.14;99516.53;15605840;28;20044;-54
2023/11/14 15:31:46;;;;;;;0.00;0.00;;;;;;;11.89;67.10;99524.59;15587744;28;20052;-52
2023/11/14 15:39:23;;;;;;;0.00;0.00;;;;;;;11.89;67.08;99517.38;15597094;28;20082;-53
2023/11/14 15:47:02;;;;;;;0.00;0.00;;;;;;;11.84;67.43;99516.47;15606606;28;20345;-55
2023/11/14 15:54:38;;;;;;;0.03;0.03;;;;;;;11.67;67.63;99521.88;15605301;28;20345;-56
2023/11/14 16:02:11;;;;;;;0.00;0.00;;;;;;;11.54;68.27;99525.72;15604897;28;20041;-54
2023/11/14 16:09:46;;;;;;;0.75;0.70;;;;;;;11.79;67.81;99527.94;15604951;28;20480;-58
2023/11/14 16:17:21;;;;;;;0.00;0.00;;;;;;;11.73;68.14;99526.25;15608531;28;20483;-54
2023/11/14 16:24:56;;;;;;;0.13;0.13;;;;;;;11.68;68.18;99526.19;15615455;28;20053;-56
2023/11/14 16:32:29;;;;;;;1.83;1.48;;;;;;;11.56;69.02;99530.84;15615480;28;20128;-50
2023/11/14 16:40:06;;;;;;;0.35;0.30;;;;;;;11.41;69.28;99537.59;15613438;28;20517;-53
2023/11/14 16:47:44;;;;;;;0.10;0.10;;;;;;;11.50;69.01;99524.56;15615187;28;20050;-53
2023/11/14 16:55:22;;;;;;;0.32;0.15;;;;;;;11.55;68.73;99530.03;15593601;28;20115;-53
2023/11/14 17:02:56;;;;;;;0.00;0.00;;;;;;;11.75;68.23;99530.34;15592501;28;20045;-56
2023/11/14 17:10:32;;;;;;;0.80;0.80;;;;;;;12.02;67.27;99540.38;15610080;28;20068;-55
2023/11/14 17:18:07;;;;;;;1.65;0.98;;;;;;;11.86;67.94;99530.50;15609039;28;21587;-56
2023/11/14 17:25:43;;;;;;;0.00;0.00;;;;;;;11.98;67.65;99532.03;15609012;28;20125;-55
2023/11/14 17:33:18;;;;;;;0.00;0.00;;;;;;;11.57;69.34;99525.22;15608800;28;20626;-57
2023/11/14 17:40:54;;;;;;;0.15;0.10;;;;;;;11.52;69.23;99527.00;15608271;28;20049;-48
2023/11/14 17:48:31;;;;;;;0.40;0.40;;;;;;;11.39;70.06;99531.66;15609220;28;20052;-51
2023/11/14 17:56:07;;;;;;;2.10;0.88;;;;;;;11.15;71.98;99535.59;15590421;28;20057;-52
2023/11/14 18:03:41;;;;;;;0.32;0.22;;;;;;;10.85;73.37;99530.50;15607759;28;20048;-52
2023/11/14 18:11:16;;;;;;;0.43;0.38;;;;;;;10.83;73.91;99530.75;15607568;28;20047;-55
2023/11/14 18:18:49;;;;;;;0.88;0.77;;;;;;;10.73;74.48;99535.94;15605980;28;20038;-55
2023/11/14 18:26:24;;;;;;;0.00;0.00;;;;;;;10.47;75.60;99531.94;15588151;28;20062;-53
2023/11/14 18:34:00;;;;;;;0.08;0.03;;;;;;;10.50;75.26;99520.75;15604906;28;20042;-53
2023/11/14 18:41:36;;;;;;;;;;;;;;;10.37;75.67;99519.16;15604285;28;20083;-54
2023/11/14 18:49:09;;;;;;;0.00;0.00;;;;;;;10.30;75.96;99509.59;15604408;28;20354;-50
2023/11/14 18:56:45;;;;;;;0.10;0.10;;;;;;;10.45;75.26;99518.78;15604137;28;20200;-54
2023/11/14 19:04:22;;;;;;;0.00;0.00;;;;;;;10.29;75.44;99521.41;15602843;28;20099;-53
2023/11/14 19:12:02;;;;;;;0.22;0.22;;;;;;;10.22;75.61;99518.84;15602725;28;20133;-52
2023/11/14 19:19:36;;;;;;;0.15;0.15;;;;;;;10.20;75.76;99524.41;15603238;28;20050;-55
2023/11/14 19:27:14;;;;;;;0.15;0.15;;;;;;;10.26;75.27;99530.75;15618411;22;20141;-47
2023/11/14 19:34:50;;;;;;;0.25;0.25;;;;;;;10.36;74.18;99512.16;15604455;28;20091;-48
2023/11/14 19:42:25;;;;;;;0.03;0.03;;;;;;;10.34;74.27;99521.50;15608244;28;20041;-50
2023/11/14 19:50:00;;;;;;;0.10;0.10;;;;;;;10.29;74.45;99524.88;15604657;28;20037;-47
2023/11/14 19:57:36;;;;;;;0.00;0.00;;;;;;;10.79;72.68;99518.03;15605662;28;20171;-52
2023/11/14 20:05:10;;;;;;;3.42;0.40;;;;;;;10.98;71.67;99514.88;15609328;28;20107;-50
2023/11/14 20:12:45;;;;;;;1.17;0.73;;;;;;;10.52;73.40;99507.09;15609321;28;20041;-52
2023/11/14 20:20:21;;;;;;;1.40;1.30;;;;;;;10.03;75.18;99494.06;15601168;28;20088;-52
2023/11/14 20:27:57;;;;;;;0.05;0.05;;;;;;;10.62;73.68;99500.03;15608260;28;20049;-47
2023/11/14 20:35:32;;;;;;;4.50;0.88;;;;;;;10.12;75.03;99498.00;15607174;28;20131;-55
2023/11/14 20:43:07;;;;;;;0.20;0.20;;;;;;;10.50;73.85;99501.97;15610195;28;20049;-45
2023/11/14 20:50:44;;;;;;;5.28;2.88;;;;;;;9.95;75.19;99486.38;15608365;28;20073;-45
2023/11/14 20:58:18;;;;;;;2.22;0.28;;;;;;;9.90;76.01;99497.81;15610415;28;20049;-48
2023/11/14 21:05:55;;;;;;;0.80;0.80;;;;;;;10.49;73.66;99484.22;15623274;28;20050;-53
2023/11/14 21:13:29;;;;;;;;;;;;;;;10.29;74.10;99495.38;15618173;28;20065;-48
2023/11/14 21:21:07;;;;;;;0.00;0.00;;;;;;;10.47;74.25;99500.56;15616434;28;20383;-48
2023/11/14 21:28:42;;;;;;;0.00;0.00;;;;;;;10.36;74.27;99492.59;15615855;28;20045;-51
2023/11/14 21:36:16;;;;;;;0.05;0.05;;;;;;;10.77;72.90;99493.31;15616875;28;20048;-51
2023/11/14 21:43:55;;;;;;;0.15;0.15;;;;;;;10.75;73.02;99490.88;15617627;28;20128;-50
2023/11/14 21:51:29;;;;;;;0.00;0.00;;;;;;;10.47;73.81;99489.84;15610184;28;20285;-51
2023/11/14 21:59:06;;;;;;;;;;;;;;;10.66;73.90;99477.03;15615966;28;20053;-51
2023/11/14 22:06:40;;;;;;;4.68;0.95;;;;;;;10.71;74.18;99481.66;15615572;28;20311;-52
2023/11/14 22:14:15;;;;;;;0.00;0.00;;;;;;;10.36;74.49;99488.03;15614289;28;20064;-53
2023/11/14 22:21:49;;;;;;;0.10;0.05;;;;;;;10.58;73.93;99493.50;15614175;28;20495;-50
2023/11/14 22:29:23;;;;;;;0.55;0.35;;;;;;;10.75;73.64;99487.38;15606108;28;20091;-52
2023/11/14 22:36:57;;;;;;;0.00;0.00;;;;;;;10.63;74.02;99496.31;15612686;28;20057;-52
2023/11/14 22:44:35;;;;;;;0.00;0.00;;;;;;;10.63;73.81;99503.53;15615233;28;20045;-51
2023/11/14 22:52:10;;;;;;;0.00;0.00;;;;;;;10.48;74.63;99515.59;15612103;28;20467;-49
2023/11/14 22:59:48;;;;;;;0.08;0.08;;;;;;;10.20;76.71;99515.56;15610464;28;20099;-49
2023/11/14 23:07:22;;;;;;;0.20;0.20;;;;;;;10.36;77.16;99528.25;15609602;28;20410;-50
2023/11/14 23:14:59;;;;;;;0.05;0.05;;;;;;;9.96;79.84;99530.88;15611864;28;20404;-52
2023/11/14 23:22:46;;;;;;;0.00;0.00;;;;;;;9.93;81.11;99545.59;15611820;28;20124;-52
2023/11/14 23:30:23;;;;;;;;;;;;;;;9.93;80.38;99550.09;15610270;28;20133;-51
2023/11/14 23:37:57;;;;;;;0.00;0.00;;;;;;;9.64;83.42;99555.38;15610550;28;20303;-53
2023/11/14 23:45:39;;;;;;;0.08;0.08;;;;;;;9.72;83.45;99554.22;15612641;28;20077;-49
2023/11/14 23:53:13;;;;;;;2.80;1.75;;;;;;;9.71;84.34;99560.63;15609877;28;20034;-52
